CW7220 Ibiza-ciudad ES current weather conditions

sailwx.info

Wind from 190 at 5 knots gusting 7

Air temperature 15.0° C
Dewpoint 10.0° C

Last reported at 2020-Jan-18 14:05 UTC.
Time now 2020-Jan-18 14:40 UTC

Location: N 38°54' E 001°25'.
View on Google Maps.

See reports from other nearby stations

  
Tides and Currents Weather Stations Pressure Air Temp Water Temp Dewpoint Dewpoint Depression Visibility Wind Speed Wind Dir Waves Ship Positions
date/time (UTC)wind fromknots sea level pressurealtimeterstation pressurevisibilityair tempwater tempwave heightnotes
2020-Jan-18 14:05 190 5 gusting 7 15.0
2020-Jan-18 14:00 207 5 gusting 8 15.0
2020-Jan-18 13:55 209 5 gusting 7 15.0
2020-Jan-18 13:50 177 2 gusting 6 15.0
2020-Jan-18 13:45 187 4 gusting 6 15.0
2020-Jan-18 13:40 188 5 gusting 6 15.0
2020-Jan-18 13:35 202 4 gusting 6 15.0
2020-Jan-18 13:30 188 4 gusting 7 15.0
2020-Jan-18 13:25 183 2 gusting 5 15.0
2020-Jan-18 13:20 176 5 gusting 7 15.0
2020-Jan-18 13:15 179 4 gusting 7 15.0
2020-Jan-18 13:10 184 1 gusting 2 15.0
2020-Jan-18 13:05 185 0 gusting 4 15.0
2020-Jan-18 13:00 191 4 gusting 6 15.0
2020-Jan-18 12:55 184 1 gusting 5 15.0
2020-Jan-18 12:50 179 2 gusting 5 15.0
2020-Jan-18 12:45 174 1 gusting 4 15.0
2020-Jan-18 12:40 171 1 gusting 4 15.0
2020-Jan-18 12:35 171 2 gusting 4 15.0
2020-Jan-18 12:30 161 1 gusting 2 15.0
2020-Jan-18 12:25 115 1 gusting 2 15.0
2020-Jan-18 12:20 093 0 gusting 2 15.0
2020-Jan-18 12:15 092 15.0
2020-Jan-18 12:10 084 15.0
2020-Jan-18 12:05 084 0 gusting 2 15.0
2020-Jan-18 12:00 084 0 gusting 2 15.0
2020-Jan-18 11:55 060 0 gusting 2 15.0
2020-Jan-18 11:50 020 14.4
2020-Jan-18 11:45 020 1 gusting 2 14.4
2020-Jan-18 11:40 009 0 gusting 2 14.4
2020-Jan-18 11:35 009 14.4
2020-Jan-18 11:30 009 1 gusting 2 14.4
2020-Jan-18 11:25 009 1 gusting 2 14.4
2020-Jan-18 11:20 009 14.4
2020-Jan-18 11:15 009 14.4
2020-Jan-18 11:10 009 13.9
2020-Jan-18 11:05 009 0 gusting 2 13.9
2020-Jan-18 11:00 009 0 gusting 2 13.9
2020-Jan-18 10:55 009 0 gusting 2 13.9
2020-Jan-18 10:50 009 0 gusting 1 13.9
2020-Jan-18 10:45 009 13.9
2020-Jan-18 10:40 009 13.9
2020-Jan-18 10:35 009 0 gusting 2 13.9
2020-Jan-18 10:30 009 13.9
2020-Jan-18 10:25 009 1 gusting 2 13.9
2020-Jan-18 10:20 009 13.9
2020-Jan-18 10:15 009 1 gusting 4 13.9
2020-Jan-18 10:10 009 3 gusting 6 13.3
2020-Jan-18 10:05 005 1 gusting 2 13.3
2020-Jan-18 10:00 005 1 gusting 2 13.3
2020-Jan-18 09:55 005 2 gusting 2 13.3
2020-Jan-18 09:50 005 1 gusting 2 13.3
2020-Jan-18 09:45 005 2 gusting 4 13.3
2020-Jan-18 09:40 005 1 gusting 2 13.3
2020-Jan-18 09:35 005 2 gusting 4 13.3
2020-Jan-18 09:30 005 4 gusting 6 13.3
2020-Jan-18 09:25 012 4 gusting 6 13.3
2020-Jan-18 09:20 013 2 gusting 4 13.3
2020-Jan-18 09:15 012 2 gusting 4 13.3
2020-Jan-18 09:10 012 1 gusting 2 13.3
2020-Jan-18 09:05 012 1 gusting 2 12.8
2020-Jan-18 09:00 011 2 gusting 4 12.8
2020-Jan-18 08:55 011 2 gusting 4 12.8
2020-Jan-18 08:50 011 2 gusting 4 12.8
2020-Jan-18 08:45 011 2 gusting 4 12.8
2020-Jan-18 08:40 011 2 gusting 2 12.8
2020-Jan-18 08:35 011 2 gusting 4 12.8
2020-Jan-18 08:30 010 2 gusting 4 12.2
2020-Jan-18 08:25 010 2 gusting 4 12.2
2020-Jan-18 08:20 010 2 gusting 4 12.2
2020-Jan-18 08:15 010 2 gusting 4 12.2
2020-Jan-18 08:10 010 2 gusting 4 12.2
2020-Jan-18 08:05 011 2 gusting 4 11.7
2020-Jan-18 08:00 011 2 gusting 4 11.7
2020-Jan-18 07:55 011 2 gusting 4 11.7
2020-Jan-18 07:50 012 1 gusting 2 11.7
2020-Jan-18 07:45 012 2 gusting 2 11.7
2020-Jan-18 07:40 009 2 gusting 2 12.2
2020-Jan-18 07:35 009 1 gusting 2 12.2
2020-Jan-18 07:30 009 2 gusting 5 12.2
2020-Jan-18 07:25 355 3 gusting 4 12.2
2020-Jan-18 07:20 352 2 gusting 4 11.7
2020-Jan-18 07:15 351 2 gusting 4 11.7
2020-Jan-18 07:10 347 2 gusting 5 11.7
2020-Jan-18 07:05 341 4 gusting 6 10.6
2020-Jan-18 07:00 355 4 gusting 6 9.4
2020-Jan-18 06:55 030 2 gusting 4 7.8
2020-Jan-18 06:50 037 2 gusting 4 7.2
2020-Jan-18 06:45 042 4 gusting 5 7.8
2020-Jan-18 06:40 037 4 gusting 5 8.3
2020-Jan-18 06:35 033 3 gusting 5 8.9
2020-Jan-18 06:30 005 2 gusting 4 8.9
2020-Jan-18 06:25 005 2 gusting 4 9.4
2020-Jan-18 06:20 005 2 gusting 2 9.4
2020-Jan-18 06:15 005 2 gusting 2 10.0
2020-Jan-18 06:10 10.6
2020-Jan-18 06:05 10.6
2020-Jan-18 06:00 002 2 gusting 2 11.1
2020-Jan-18 05:55 10.6
2020-Jan-18 05:50 11.1
2020-Jan-18 05:45 11.1
2020-Jan-18 05:40 10.6
2020-Jan-18 05:35 002 2 gusting 2 11.1
2020-Jan-18 05:30 11.7
2020-Jan-18 05:25 11.7
2020-Jan-18 05:20 11.7
2020-Jan-18 05:15 11.7
2020-Jan-18 05:10 11.1
2020-Jan-18 05:05 11.1
2020-Jan-18 05:00 011 2 gusting 6 10.6
2020-Jan-18 04:55 011 2 gusting 4 9.4
2020-Jan-18 04:50 011 2 gusting 2 10.0
2020-Jan-18 04:45 009 2 gusting 2 10.6
2020-Jan-18 04:40 009 2 gusting 2 10.6
2020-Jan-18 04:35 009 1 gusting 2 11.1
2020-Jan-18 04:30 009 2 gusting 4 11.7
2020-Jan-18 04:25 009 2 gusting 2 11.7
2020-Jan-18 04:20 009 2 gusting 4 11.1
2020-Jan-18 04:15 009 2 gusting 2 10.6
2020-Jan-18 04:10 009 1 gusting 4 10.6
2020-Jan-18 04:05 009 2 gusting 4 10.6
2020-Jan-18 04:00 005 2 gusting 4 10.6
2020-Jan-18 03:55 005 2 gusting 2 10.6
2020-Jan-18 03:50 005 2 gusting 4 10.6
2020-Jan-18 03:45 005 2 gusting 2 10.0
2020-Jan-18 03:40 005 2 gusting 2 10.0
2020-Jan-18 03:35 005 1 gusting 2 10.6
2020-Jan-18 03:30 005 2 gusting 2 10.6
2020-Jan-18 03:25 005 0 gusting 2 10.6
2020-Jan-18 03:20 005 1 gusting 2 11.1
2020-Jan-18 03:15 005 2 gusting 2 11.7
2020-Jan-18 03:10 005 1 gusting 4 11.7
2020-Jan-18 03:05 005 2 gusting 4 11.7
2020-Jan-18 03:00 005 2 gusting 2 11.7
2020-Jan-18 02:55 005 1 gusting 2 11.7
2020-Jan-18 02:50 005 2 gusting 2 11.1
2020-Jan-18 02:45 005 2 gusting 2 11.1
2020-Jan-18 02:40 005 1 gusting 2 11.1
2020-Jan-18 02:35 005 1 gusting 2 11.1
2020-Jan-18 02:30 005 1 gusting 2 11.7
2020-Jan-18 02:25 005 1 gusting 2 12.2
2020-Jan-18 02:20 005 2 gusting 4 12.2
2020-Jan-18 02:15 005 2 gusting 4 12.2
2020-Jan-18 02:10 005 4 gusting 4 12.2
2020-Jan-18 02:05 020 2 gusting 4 12.2
2020-Jan-18 02:00 020 3 gusting 4 12.2
2020-Jan-18 01:55 033 2 gusting 2 12.2
2020-Jan-18 01:50 033 2 gusting 2 11.7
2020-Jan-18 01:45 033 2 gusting 2 11.1
2020-Jan-18 01:40 033 2 gusting 2 10.6
2020-Jan-18 01:35 034 1 gusting 2 10.6
2020-Jan-18 01:30 033 2 gusting 4 10.6
2020-Jan-18 01:25 028 2 gusting 2 10.6
2020-Jan-18 01:20 028 1 gusting 2 10.6
2020-Jan-18 01:15 028 2 gusting 4 10.6
2020-Jan-18 01:10 028 2 gusting 2 10.6
2020-Jan-18 01:05 028 2 gusting 4 10.0
2020-Jan-18 01:00 028 2 gusting 2 10.0
2020-Jan-18 00:55 028 2 gusting 2 10.6
2020-Jan-18 00:50 027 2 gusting 2 10.6
2020-Jan-18 00:45 027 1 gusting 2 10.6
2020-Jan-18 00:40 027 1 gusting 2 10.6
2020-Jan-18 00:35 027 2 gusting 2 10.6
2020-Jan-18 00:30 027 1 gusting 2 10.6
2020-Jan-18 00:25 027 1 gusting 2 11.1
2020-Jan-18 00:20 027 1 gusting 2 11.7
2020-Jan-18 00:15 022 2 gusting 2 11.7
2020-Jan-18 00:10 022 2 gusting 2 11.7
2020-Jan-18 00:05 021 1 gusting 2 11.7
2020-Jan-18 00:00 019 1 gusting 2 11.1
2020-Jan-17 23:55 019 2 gusting 2 11.1
2020-Jan-17 23:50 019 1 gusting 2 11.1
2020-Jan-17 23:45 019 2 gusting 2 11.1
2020-Jan-17 23:40 019 1 gusting 2 11.1
2020-Jan-17 23:35 019 1 gusting 2 11.1
2020-Jan-17 23:30 059 1 gusting 2 11.1
2020-Jan-17 23:25 059 1 gusting 2 11.1
2020-Jan-17 23:20 059 2 gusting 2 11.1
2020-Jan-17 23:15 044 1 gusting 2 11.7
2020-Jan-17 23:10 056 2 gusting 4 12.2
2020-Jan-17 23:05 061 1 gusting 4 12.2
2020-Jan-17 23:00 056 2 gusting 4 12.8
2020-Jan-17 22:55 021 1 gusting 2 13.3
2020-Jan-17 22:50 308 3 gusting 6 13.3
2020-Jan-17 22:45 294 5 gusting 7 13.3
2020-Jan-17 22:40 290 6 gusting 8 13.3
2020-Jan-17 22:35 296 4 gusting 6 13.3
2020-Jan-17 22:30 284 2 gusting 5 13.3
2020-Jan-17 22:25 276 2 gusting 6 13.3
2020-Jan-17 22:20 286 4 gusting 6 13.3
2020-Jan-17 22:15 231 2 gusting 4 13.3
2020-Jan-17 22:10 135 1 gusting 2 13.3
2020-Jan-17 22:05 134 0 gusting 2 13.3
2020-Jan-17 22:00 132 0 gusting 2 13.3
2020-Jan-17 21:55 132 0 gusting 2 13.9
2020-Jan-17 21:50 065 13.9
2020-Jan-17 21:45 065 1 gusting 2 13.9
2020-Jan-17 21:40 057 0 gusting 2 13.9
2020-Jan-17 21:35 056 2 gusting 4 14.4
2020-Jan-17 21:30 319 1 gusting 2 14.4
2020-Jan-17 21:25 319 0 gusting 2 15.0
2020-Jan-17 21:20 319 1 gusting 4 15.6
2020-Jan-17 21:15 315 2 gusting 6 15.6
2020-Jan-17 21:10 296 4 gusting 8 15.6
2020-Jan-17 21:05 298 5 gusting 10 15.6
2020-Jan-17 21:00 281 4 gusting 10 15.6
2020-Jan-17 20:55 294 6 gusting 10 15.6
2020-Jan-17 20:50 283 5 gusting 10 15.6
2020-Jan-17 20:45 284 5 gusting 12 15.6
2020-Jan-17 20:40 282 5 gusting 10 15.6
2020-Jan-17 20:35 296 5 gusting 10 15.6
2020-Jan-17 20:30 283 6 gusting 10 15.6
2020-Jan-17 20:25 287 5 gusting 8 15.6
2020-Jan-17 20:20 277 6 gusting 10 16.1
2020-Jan-17 20:15 291 6 gusting 10 15.6
2020-Jan-17 20:10 294 6 gusting 10 15.6
2020-Jan-17 20:05 298 6 gusting 10 15.6
2020-Jan-17 20:00 294 5 gusting 11 15.6
2020-Jan-17 19:55 298 6 gusting 10 16.1
2020-Jan-17 19:50 293 6 gusting 13 15.6
2020-Jan-17 19:45 286 6 gusting 12 16.1
2020-Jan-17 19:40 291 7 gusting 12 16.1
2020-Jan-17 19:35 291 7 gusting 12 15.6
2020-Jan-17 19:30 293 6 gusting 11 15.6
2020-Jan-17 19:25 287 5 gusting 11 15.6
2020-Jan-17 19:20 294 6 gusting 11 16.1
2020-Jan-17 19:15 292 6 gusting 12 16.1
2020-Jan-17 19:10 287 8 gusting 11 16.1
2020-Jan-17 19:05 293 8 gusting 14 16.1
2020-Jan-17 19:00 280 6 gusting 11 16.1
2020-Jan-17 18:55 274 7 gusting 13 16.7
2020-Jan-17 18:50 269 6 gusting 14 16.7
2020-Jan-17 18:45 288 7 gusting 14 16.1
2020-Jan-17 18:40 283 9 gusting 13 16.1
2020-Jan-17 18:35 289 8 gusting 13 16.1
2020-Jan-17 18:30 291 8 gusting 15 16.1
2020-Jan-17 18:25 296 7 gusting 15 16.1
2020-Jan-17 18:20 286 8 gusting 17 16.7
2020-Jan-17 18:15 285 8 gusting 19 16.7
2020-Jan-17 18:10 286 10 gusting 17 16.7
2020-Jan-17 18:05 283 11 gusting 19 16.7
2020-Jan-17 18:00 279 8 gusting 14 16.7
2020-Jan-17 17:55 277 11 gusting 17 16.7
2020-Jan-17 17:50 286 10 gusting 15 16.7
2020-Jan-17 17:45 277 8 gusting 22 16.7
2020-Jan-17 17:40 277 8 gusting 15 16.7
2020-Jan-17 17:35 287 9 gusting 19 16.7
2020-Jan-17 17:30 271 11 gusting 17 16.7
2020-Jan-17 17:25 278 11 gusting 19 16.7
2020-Jan-17 17:20 283 10 gusting 15 16.7
2020-Jan-17 17:15 290 10 gusting 15 16.7
2020-Jan-17 17:10 285 8 gusting 14 16.7
2020-Jan-17 17:05 288 10 gusting 17 16.7
2020-Jan-17 17:00 293 10 gusting 17 16.7
2020-Jan-17 16:55 290 9 gusting 15 16.7
2020-Jan-17 16:50 286 11 gusting 19 16.7
2020-Jan-17 16:45 281 13 gusting 25 16.7
2020-Jan-17 16:40 263 12 gusting 21 16.7
2020-Jan-17 16:35 272 10 gusting 17 16.7
2020-Jan-17 16:30 262 10 gusting 19 16.7
2020-Jan-17 16:25 276 13 gusting 20 16.7
2020-Jan-17 16:20 273 13 gusting 21 16.7
2020-Jan-17 16:15 269 12 gusting 19 16.7
2020-Jan-17 16:10 277 8 gusting 17 16.7
2020-Jan-17 16:05 274 11 gusting 19 16.7
2020-Jan-17 16:00 281 11 gusting 17 16.7
2020-Jan-17 15:55 282 10 gusting 18 16.7
2020-Jan-17 15:50 273 13 gusting 19 16.7
2020-Jan-17 15:45 276 15 gusting 26 16.7
2020-Jan-17 15:40 278 12 gusting 24 16.7
2020-Jan-17 15:35 267 12 gusting 24 17.2
2020-Jan-17 15:30 274 10 gusting 24 17.2
2020-Jan-17 15:25 278 15 gusting 22 17.2
2020-Jan-17 15:20 278 10 gusting 19 17.2
2020-Jan-17 15:15 273 13 gusting 22 17.2
2020-Jan-17 15:10 280 10 gusting 17 17.8
2020-Jan-17 15:05 266 11 gusting 17 17.8
2020-Jan-17 15:00 285 8 gusting 13 17.8
2020-Jan-17 14:55 271 10 gusting 22 17.2
2020-Jan-17 14:50 270 8 gusting 13 17.2
2020-Jan-17 14:45 273 13 gusting 22 17.2
2020-Jan-17 14:40 267 8 gusting 17 17.2
2020-Jan-17 14:35 276 11 gusting 18 17.2
2020-Jan-17 14:30 276 10 gusting 15 17.2
2020-Jan-17 14:25 268 11 gusting 17 17.2
2020-Jan-17 14:20 288 9 gusting 20 17.2
2020-Jan-17 14:15 280 10 gusting 21 17.2
2020-Jan-17 14:10 281 13 gusting 20 17.2
2020-Jan-17 14:05 273 10 gusting 19 17.2
2020-Jan-17 14:00 288 13 gusting 26 17.2
2020-Jan-17 13:55 267 8 gusting 17 17.2
2020-Jan-17 13:50 291 11 gusting 22 17.2
2020-Jan-17 13:45 292 12 gusting 22 17.2
2020-Jan-17 13:40 274 17 gusting 30 17.2
2020-Jan-17 13:35 269 10 gusting 27 17.2
2020-Jan-17 13:30 278 12 gusting 19 17.2
2020-Jan-17 13:25 282 11 gusting 19 17.2
2020-Jan-17 13:20 280 13 gusting 19 17.2
2020-Jan-17 13:15 281 8 gusting 19 17.2
2020-Jan-17 13:10 276 15 gusting 22 17.2
2020-Jan-17 13:05 274 15 gusting 24 17.2
2020-Jan-17 13:00 263 15 gusting 30 17.2
2020-Jan-17 12:55 281 12 gusting 24 17.2
2020-Jan-17 12:50 273 13 gusting 27 17.2
2020-Jan-17 12:45 268 13 gusting 22 17.2
2020-Jan-17 12:40 267 15 gusting 22 17.2
2020-Jan-17 12:35 260 14 gusting 21 17.2
2020-Jan-17 12:30 277 15 gusting 24 17.2
2020-Jan-17 12:25 271 14 gusting 25 16.7
2020-Jan-17 12:20 265 14 gusting 26 16.7
2020-Jan-17 12:15 270 13 gusting 28 16.7
2020-Jan-17 12:10 269 18 gusting 28 16.7
2020-Jan-17 12:05 268 11 gusting 24 17.2
2020-Jan-17 12:00 263 12 gusting 22 17.2
2020-Jan-17 11:55 255 11 gusting 28 17.2
2020-Jan-17 11:50 258 12 gusting 19 17.2
2020-Jan-17 11:45 279 13 gusting 26 17.2
2020-Jan-17 11:40 273 10 gusting 19 16.7
2020-Jan-17 11:35 269 14 gusting 22 16.7
2020-Jan-17 11:30 277 12 gusting 21 16.7
2020-Jan-17 11:25 273 17 gusting 26 17.2
2020-Jan-17 11:20 261 10 gusting 20 17.2
2020-Jan-17 11:15 258 11 gusting 17 17.2
2020-Jan-17 11:10 265 7 gusting 17 17.2
2020-Jan-17 11:05 259 10 gusting 17 16.7
2020-Jan-17 11:00 244 12 gusting 19 16.7
2020-Jan-17 10:55 270 10 gusting 18 16.7
2020-Jan-17 10:50 260 12 gusting 22 16.7
2020-Jan-17 10:45 256 10 gusting 19 16.7
2020-Jan-17 10:40 247 11 gusting 17 16.7
2020-Jan-17 10:35 274 8 gusting 15 16.7
2020-Jan-17 10:30 258 7 gusting 15 16.7
2020-Jan-17 10:25 256 11 gusting 20 16.1
2020-Jan-17 10:20 254 13 gusting 22 16.7
2020-Jan-17 10:15 258 8 gusting 18 16.7
2020-Jan-17 10:10 258 10 gusting 17 16.7
2020-Jan-17 10:05 244 7 gusting 14 16.7
2020-Jan-17 10:00 240 10 gusting 17 16.7
2020-Jan-17 09:55 216 5 gusting 17 16.7
2020-Jan-17 09:50 247 8 gusting 17 16.7
2020-Jan-17 09:45 247 11 gusting 19 16.7
2020-Jan-17 09:40 246 6 gusting 14 16.7
2020-Jan-17 09:35 242 7 gusting 13 16.7
2020-Jan-17 09:30 237 10 gusting 18 16.1
2020-Jan-17 09:25 250 9 gusting 17 16.1
2020-Jan-17 09:20 245 9 gusting 15 16.1
2020-Jan-17 09:15 244 11 gusting 19 15.6
2020-Jan-17 09:10 252 7 gusting 14 15.0
2020-Jan-17 09:05 226 5 gusting 15 15.0
2020-Jan-17 09:00 230 6 gusting 11 14.4
2020-Jan-17 08:55 225 5 gusting 11 14.4
2020-Jan-17 08:50 226 6 gusting 10 13.9
2020-Jan-17 08:45 214 5 gusting 11 13.9
2020-Jan-17 08:40 222 5 gusting 8 13.9
2020-Jan-17 08:35 228 6 gusting 10 13.9
2020-Jan-17 08:30 225 6 gusting 10 13.3
2020-Jan-17 08:25 236 4 gusting 10 13.3
2020-Jan-17 08:20 234 5 gusting 10 13.3
2020-Jan-17 08:15 231 5 gusting 8 12.8
2020-Jan-17 08:10 235 4 gusting 7 12.8
2020-Jan-17 08:05 238 3 gusting 5 12.8
2020-Jan-17 08:00 232 2 gusting 5 12.8
2020-Jan-17 07:55 235 2 gusting 4 12.8
2020-Jan-17 07:50 244 3 gusting 6 12.8
2020-Jan-17 07:45 245 3 gusting 6 12.8
2020-Jan-17 07:40 248 2 gusting 4 12.8
2020-Jan-17 07:35 234 3 gusting 6 12.8
2020-Jan-17 07:30 229 4 gusting 7 12.8
2020-Jan-17 07:25 232 4 gusting 6 12.8
2020-Jan-17 07:20 243 5 gusting 7 12.8
2020-Jan-17 07:15 245 5 gusting 7 12.8
2020-Jan-17 07:10 255 6 gusting 8 12.8
2020-Jan-17 07:05 261 5 gusting 7 12.8
2020-Jan-17 07:00 257 4 gusting 7 12.8
2020-Jan-17 06:55 261 5 gusting 7 12.8
2020-Jan-17 06:50 260 5 gusting 7 12.8
2020-Jan-17 06:45 257 5 gusting 7 12.8
2020-Jan-17 06:40 267 5 gusting 7 12.8
2020-Jan-17 06:35 262 4 gusting 7 12.8
2020-Jan-17 06:30 262 5 gusting 7 12.8
2020-Jan-17 06:25 253 5 gusting 7 12.8
2020-Jan-17 06:20 261 6 gusting 8 12.8
2020-Jan-17 06:15 246 5 gusting 7 12.8
2020-Jan-17 06:10 261 5 gusting 7 12.8
2020-Jan-17 06:05 249 4 gusting 8 12.8
2020-Jan-17 06:00 260 5 gusting 8 12.8
2020-Jan-17 05:55 250 6 gusting 7 12.8
2020-Jan-17 05:50 242 5 gusting 8 12.8
2020-Jan-17 05:45 234 4 gusting 6 12.8
2020-Jan-17 05:40 233 4 gusting 7 12.8
2020-Jan-17 05:35 234 5 gusting 8 12.8
2020-Jan-17 05:30 231 6 gusting 10 12.8
2020-Jan-17 05:25 243 5 gusting 7 12.8
2020-Jan-17 05:20 230 4 gusting 6 12.8
2020-Jan-17 05:15 229 4 gusting 5 12.8
2020-Jan-17 05:10 227 4 gusting 6 12.8
2020-Jan-17 05:05 231 4 gusting 7 12.8
2020-Jan-17 05:00 229 4 gusting 6 12.8
2020-Jan-17 04:55 226 5 gusting 6 12.8
2020-Jan-17 04:50 239 4 gusting 6 12.8
2020-Jan-17 04:45 235 4 gusting 10 13.3
2020-Jan-17 04:40 235 5 gusting 10 13.3
2020-Jan-17 04:35 233 5 gusting 8 13.3
2020-Jan-17 04:30 241 5 gusting 8 13.3
2020-Jan-17 04:25 238 6 gusting 10 13.3
2020-Jan-17 04:20 249 6 gusting 10 13.3
2020-Jan-17 04:15 251 7 gusting 12 13.3
2020-Jan-17 04:10 246 8 gusting 13 13.3
2020-Jan-17 04:05 252 9 gusting 13 13.3
2020-Jan-17 04:00 251 7 gusting 13 13.3
2020-Jan-17 03:55 247 6 gusting 12 13.3
2020-Jan-17 03:50 253 6 gusting 12 13.3
2020-Jan-17 03:45 243 6 gusting 13 13.3
2020-Jan-17 03:40 243 7 gusting 11 13.3
2020-Jan-17 03:35 240 6 gusting 11 13.3
2020-Jan-17 03:30 247 6 gusting 10 13.3
2020-Jan-17 03:25 249 7 gusting 11 13.3
2020-Jan-17 03:20 247 6 gusting 10 13.3
2020-Jan-17 03:15 242 6 gusting 10 13.3
2020-Jan-17 03:10 243 6 gusting 10 13.3
2020-Jan-17 03:05 238 6 gusting 12 13.3
2020-Jan-17 03:00 242 6 gusting 13 13.3
2020-Jan-17 02:55 243 5 gusting 13 13.3
2020-Jan-17 02:50 240 8 gusting 12 13.3
2020-Jan-17 02:45 242 6 gusting 12 13.3
2020-Jan-17 02:40 231 8 gusting 11 13.3
2020-Jan-17 02:35 237 6 gusting 11 13.3
2020-Jan-17 02:30 240 6 gusting 11 13.3
2020-Jan-17 02:25 231 6 gusting 12 13.3
2020-Jan-17 02:20 233 6 gusting 10 13.3
2020-Jan-17 02:15 224 6 gusting 11 13.3
2020-Jan-17 02:10 233 6 gusting 11 13.3
2020-Jan-17 02:05 235 6 gusting 10 13.3
2020-Jan-17 02:00 230 6 gusting 11 13.3
2020-Jan-17 01:55 223 6 gusting 11 13.3
2020-Jan-17 01:50 225 6 gusting 10 13.3
2020-Jan-17 01:45 225 6 gusting 11 12.8
2020-Jan-17 01:40 223 5 gusting 8 12.8
2020-Jan-17 01:35 228 5 gusting 7 12.8
2020-Jan-17 01:30 232 5 gusting 10 12.8
2020-Jan-17 01:25 225 5 gusting 10 12.8
2020-Jan-17 01:20 221 5 gusting 10 12.8
2020-Jan-17 01:15 227 5 gusting 10 12.8
2020-Jan-17 01:10 222 4 gusting 7 12.8
2020-Jan-17 01:05 232 4 gusting 6 12.8
2020-Jan-17 01:00 234 4 gusting 7 12.8
2020-Jan-17 00:55 237 4 gusting 8 12.8
2020-Jan-17 00:50 233 6 gusting 8 12.8
2020-Jan-17 00:45 230 6 gusting 8 12.8
2020-Jan-17 00:40 232 6 gusting 10 12.8
2020-Jan-17 00:35 230 5 gusting 8 12.8
2020-Jan-17 00:30 231 6 gusting 7 12.8
2020-Jan-17 00:25 230 5 gusting 6 12.2
2020-Jan-17 00:20 226 4 gusting 7 12.2
2020-Jan-17 00:15 229 3 gusting 6 12.2
2020-Jan-17 00:10 231 4 gusting 6 12.2
2020-Jan-17 00:05 232 4 gusting 7 12.2
2020-Jan-17 00:00 234 4 gusting 7 12.2
2020-Jan-16 23:55 230 3 gusting 6 12.2
2020-Jan-16 23:50 231 3 gusting 7 12.2
2020-Jan-16 23:45 231 4 gusting 6 12.2
2020-Jan-16 23:40 236 3 gusting 6 12.2
2020-Jan-16 23:35 232 4 gusting 6 12.2
2020-Jan-16 23:30 236 4 gusting 6 12.2
2020-Jan-16 23:25 234 4 gusting 6 12.2
2020-Jan-16 23:20 234 4 gusting 6 12.2
2020-Jan-16 23:15 234 4 gusting 6 12.2
2020-Jan-16 23:10 235 4 gusting 6 12.2
2020-Jan-16 23:05 238 5 gusting 7 12.2
2020-Jan-16 23:00 232 6 gusting 8 12.2
2020-Jan-16 22:55 238 4 gusting 6 12.2
2020-Jan-16 22:50 240 4 gusting 6 12.2
2020-Jan-16 22:45 238 4 gusting 6 12.2
2020-Jan-16 22:40 232 5 gusting 7 12.2
2020-Jan-16 22:35 242 5 gusting 7 12.2
2020-Jan-16 22:30 229 5 gusting 6 12.2
2020-Jan-16 22:25 228 4 gusting 6 12.2
2020-Jan-16 22:20 227 5 gusting 7 12.2
2020-Jan-16 22:15 232 4 gusting 6 12.2
2020-Jan-16 22:10 234 4 gusting 6 12.2
2020-Jan-16 22:05 227 4 gusting 6 12.2
2020-Jan-16 22:00 233 4 gusting 6 12.2
2020-Jan-16 21:55 231 4 gusting 6 12.2
2020-Jan-16 21:50 229 4 gusting 5 12.2
2020-Jan-16 21:45 227 4 gusting 6 12.2
2020-Jan-16 21:40 228 4 gusting 6 12.2
2020-Jan-16 21:35 221 4 gusting 6 12.2
2020-Jan-16 21:30 229 5 gusting 6 12.8
2020-Jan-16 21:25 228 4 gusting 6 12.8
2020-Jan-16 21:20 240 4 gusting 6 12.8
2020-Jan-16 21:15 237 4 gusting 6 12.8
2020-Jan-16 21:10 236 4 gusting 6 12.8
2020-Jan-16 21:05 230 4 gusting 6 12.8
2020-Jan-16 21:00 229 5 gusting 6 12.8
2020-Jan-16 20:55 234 5 gusting 7 12.8
2020-Jan-16 20:50 233 4 gusting 6 12.8
2020-Jan-16 20:45 244 4 gusting 6 12.8
2020-Jan-16 20:40 236 3 gusting 4 12.8
2020-Jan-16 20:35 234 2 gusting 5 12.8
2020-Jan-16 20:30 232 3 gusting 5 12.8
2020-Jan-16 20:25 235 4 gusting 5 12.8
2020-Jan-16 20:20 231 4 gusting 6 12.8
2020-Jan-16 20:15 225 2 gusting 4 12.8
2020-Jan-16 20:10 228 3 gusting 5 12.8
2020-Jan-16 20:05 227 3 gusting 5 12.8
2020-Jan-16 20:00 230 3 gusting 4 12.8
2020-Jan-16 19:55 241 4 gusting 6 12.8
2020-Jan-16 19:50 234 2 gusting 5 12.8
2020-Jan-16 19:45 233 4 gusting 5 12.8
2020-Jan-16 19:40 224 2 gusting 5 12.8
2020-Jan-16 19:35 236 2 gusting 4 12.8
2020-Jan-16 19:30 236 3 gusting 5 12.8
2020-Jan-16 19:25 237 2 gusting 5 12.8
2020-Jan-16 19:20 232 2 gusting 4 12.8
2020-Jan-16 19:15 233 2 gusting 4 12.8
2020-Jan-16 19:10 233 2 gusting 4 12.8
2020-Jan-16 19:05 233 2 gusting 4 12.8
2020-Jan-16 19:00 233 2 gusting 2 12.8
2020-Jan-16 18:55 233 1 gusting 2 12.8
2020-Jan-16 18:50 233 2 gusting 4 12.8
2020-Jan-16 18:45 233 2 gusting 2 12.8
2020-Jan-16 18:40 233 2 gusting 4 13.3
2020-Jan-16 18:35 233 1 gusting 2 13.3
2020-Jan-16 18:30 233 1 gusting 2 13.3
2020-Jan-16 18:25 233 1 gusting 2 13.3
2020-Jan-16 18:20 233 1 gusting 2 13.3
2020-Jan-16 18:15 233 1 gusting 2 13.3
2020-Jan-16 18:10 233 1 gusting 2 13.3
2020-Jan-16 18:05 233 13.3
2020-Jan-16 18:00 233 0 gusting 1 13.3
2020-Jan-16 17:55 233 0 gusting 1 13.3
2020-Jan-16 17:50 233 13.3
2020-Jan-16 17:45 233 13.3
2020-Jan-16 17:40 233 13.3
2020-Jan-16 17:35 233 0 gusting 1 13.3
2020-Jan-16 17:30 233 0 gusting 2 13.9
2020-Jan-16 17:25 233 0 gusting 1 13.9
2020-Jan-16 17:20 233 0 gusting 2 13.9
2020-Jan-16 17:15 233 1 gusting 2 13.9
2020-Jan-16 17:10 232 2 gusting 4 13.9
2020-Jan-16 17:05 225 1 gusting 2 14.4
2020-Jan-16 17:00 225 1 gusting 2 14.4
2020-Jan-16 16:55 225 1 gusting 2 14.4
2020-Jan-16 16:50 225 1 gusting 4 14.4
2020-Jan-16 16:45 225 1 gusting 5 15.0
2020-Jan-16 16:40 239 2 gusting 5 15.0
2020-Jan-16 16:35 231 4 gusting 6 15.0
2020-Jan-16 16:30 217 4 gusting 7 15.0
2020-Jan-16 16:25 243 3 gusting 6 15.0
2020-Jan-16 16:20 233 2 gusting 5 15.6
2020-Jan-16 16:15 239 5 gusting 8 15.6
2020-Jan-16 16:10 230 2 gusting 5 15.6
2020-Jan-16 16:05 242 2 gusting 6 15.6
2020-Jan-16 16:00 229 2 gusting 6 15.6
2020-Jan-16 15:55 229 4 gusting 7 15.6
2020-Jan-16 15:50 215 5 gusting 7 15.6
2020-Jan-16 15:45 214 6 gusting 10 15.6
2020-Jan-16 15:40 211 6 gusting 8 16.1
2020-Jan-16 15:35 217 6 gusting 10 16.1
2020-Jan-16 15:30 219 5 gusting 11 16.1
2020-Jan-16 15:25 217 5 gusting 11 16.1
2020-Jan-16 15:20 210 5 gusting 10 16.1
2020-Jan-16 15:15 198 6 gusting 10 16.1
2020-Jan-16 15:10 196 5 gusting 8 16.1
2020-Jan-16 15:05 205 4 gusting 10 16.1
2020-Jan-16 15:00 198 6 gusting 10 16.7
2020-Jan-16 14:55 195 6 gusting 10 16.7
2020-Jan-16 14:50 205 6 gusting 10 16.7
2020-Jan-16 14:45 220 5 gusting 11 16.7
2020-Jan-16 14:40 212 6 gusting 10 16.7
2020-Jan-16 14:35 195 6 gusting 10 16.7
2020-Jan-16 14:30 209 5 gusting 10 16.7
2020-Jan-16 14:25 213 6 gusting 8 16.7
2020-Jan-16 14:20 230 3 gusting 10 16.7
2020-Jan-16 14:15 194 5 gusting 7 16.7
2020-Jan-16 14:10 191 6 gusting 10 16.7
2020-Jan-16 14:05 201 6 gusting 10 16.7
2020-Jan-16 14:00 215 6 gusting 12 16.7